sensor_id;sensor_type;location;lat;lon;timestamp;temperature;humidity
18260;DHT22;9256;52.236;5.712;2024-03-08T00:02:01;1.60;99.90
18260;DHT22;9256;52.236;5.712;2024-03-08T00:04:29;1.60;99.90
18260;DHT22;9256;52.236;5.712;2024-03-08T00:06:56;1.60;99.90
18260;DHT22;9256;52.236;5.712;2024-03-08T00:09:23;1.60;99.90
18260;DHT22;9256;52.236;5.712;2024-03-08T00:11:52;1.60;99.90
18260;DHT22;9256;52.236;5.712;2024-03-08T00:14:19;1.50;99.90
18260;DHT22;9256;52.236;5.712;2024-03-08T00:16:47;1.50;99.90
18260;DHT22;9256;52.236;5.712;2024-03-08T00:19:15;1.40;99.90
18260;DHT22;9256;52.236;5.712;2024-03-08T00:21:43;1.50;99.90
18260;DHT22;9256;52.236;5.712;2024-03-08T00:24:10;1.40;99.90
18260;DHT22;9256;52.236;5.712;2024-03-08T00:26:37;1.40;99.90
18260;DHT22;9256;52.236;5.712;2024-03-08T00:29:04;1.30;99.90
18260;DHT22;9256;52.236;5.712;2024-03-08T00:31:33;1.30;99.90
18260;DHT22;9256;52.236;5.712;2024-03-08T00:34:00;1.30;99.90
18260;DHT22;9256;52.236;5.712;2024-03-08T00:36:29;1.30;99.90
18260;DHT22;9256;52.236;5.712;2024-03-08T00:38:56;1.30;99.90
18260;DHT22;9256;52.236;5.712;2024-03-08T00:41:26;1.40;99.90
18260;DHT22;9256;52.236;5.712;2024-03-08T00:43:53;1.40;99.90
18260;DHT22;9256;52.236;5.712;2024-03-08T00:46:20;1.30;99.90
18260;DHT22;9256;52.236;5.712;2024-03-08T00:48:47;1.30;99.90
18260;DHT22;9256;52.236;5.712;2024-03-08T00:51:14;1.30;99.90
18260;DHT22;9256;52.236;5.712;2024-03-08T00:53:43;1.30;99.90
18260;DHT22;9256;52.236;5.712;2024-03-08T00:56:10;1.20;99.90
18260;DHT22;9256;52.236;5.712;2024-03-08T00:58:37;1.20;99.90
18260;DHT22;9256;52.236;5.712;2024-03-08T01:01:04;1.20;99.90
18260;DHT22;9256;52.236;5.712;2024-03-08T01:03:31;1.20;99.90
18260;DHT22;9256;52.236;5.712;2024-03-08T01:05:59;1.20;99.90
18260;DHT22;9256;52.236;5.712;2024-03-08T01:08:27;1.10;99.90
18260;DHT22;9256;52.236;5.712;2024-03-08T01:10:56;1.10;99.90
18260;DHT22;9256;52.236;5.712;2024-03-08T01:13:23;1.10;99.90
18260;DHT22;9256;52.236;5.712;2024-03-08T01:15:50;1.00;99.90
18260;DHT22;9256;52.236;5.712;2024-03-08T01:18:17;1.00;99.90
18260;DHT22;9256;52.236;5.712;2024-03-08T01:20:45;1.10;99.90
18260;DHT22;9256;52.236;5.712;2024-03-08T01:23:12;1.10;99.90
18260;DHT22;9256;52.236;5.712;2024-03-08T01:25:39;1.10;99.90
18260;DHT22;9256;52.236;5.712;2024-03-08T01:28:08;1.00;99.90
18260;DHT22;9256;52.236;5.712;2024-03-08T01:30:35;1.00;99.90
18260;DHT22;9256;52.236;5.712;2024-03-08T01:33:03;1.00;99.90
18260;DHT22;9256;52.236;5.712;2024-03-08T01:35:30;1.00;99.90
18260;DHT22;9256;52.236;5.712;2024-03-08T01:37:57;1.10;99.90
18260;DHT22;9256;52.236;5.712;2024-03-08T01:40:24;1.00;99.90
18260;DHT22;9256;52.236;5.712;2024-03-08T01:42:51;1.00;99.90
18260;DHT22;9256;52.236;5.712;2024-03-08T01:45:20;1.00;99.90
18260;DHT22;9256;52.236;5.712;2024-03-08T01:47:47;0.90;99.90
18260;DHT22;9256;52.236;5.712;2024-03-08T01:50:15;0.90;99.90
18260;DHT22;9256;52.236;5.712;2024-03-08T01:52:42;0.90;99.90
18260;DHT22;9256;52.236;5.712;2024-03-08T01:55:11;0.90;99.90
18260;DHT22;9256;52.236;5.712;2024-03-08T01:57:40;0.80;99.90
18260;DHT22;9256;52.236;5.712;2024-03-08T02:00:08;0.90;99.90
18260;DHT22;9256;52.236;5.712;2024-03-08T02:02:42;0.90;99.90
18260;DHT22;9256;52.236;5.712;2024-03-08T02:05:09;0.80;99.90
18260;DHT22;9256;52.236;5.712;2024-03-08T02:07:36;0.80;99.90
18260;DHT22;9256;52.236;5.712;2024-03-08T02:10:03;0.80;99.90
18260;DHT22;9256;52.236;5.712;2024-03-08T02:12:30;0.80;99.90
18260;DHT22;9256;52.236;5.712;2024-03-08T02:14:58;0.70;99.90
18260;DHT22;9256;52.236;5.712;2024-03-08T02:17:25;0.70;99.90
18260;DHT22;9256;52.236;5.712;2024-03-08T02:19:53;0.70;99.90
18260;DHT22;9256;52.236;5.712;2024-03-08T02:22:22;0.70;99.90
18260;DHT22;9256;52.236;5.712;2024-03-08T02:24:49;0.60;99.90
18260;DHT22;9256;52.236;5.712;2024-03-08T02:27:23;0.60;99.90
18260;DHT22;9256;52.236;5.712;2024-03-08T02:29:51;0.60;99.90
18260;DHT22;9256;52.236;5.712;2024-03-08T02:32:21;0.60;99.90
18260;DHT22;9256;52.236;5.712;2024-03-08T02:34:48;0.60;99.90
18260;DHT22;9256;52.236;5.712;2024-03-08T02:37:15;0.60;99.90
18260;DHT22;9256;52.236;5.712;2024-03-08T02:39:44;0.60;99.90
18260;DHT22;9256;52.236;5.712;2024-03-08T02:42:11;0.60;99.90
18260;DHT22;9256;52.236;5.712;2024-03-08T02:44:42;0.50;99.90
18260;DHT22;9256;52.236;5.712;2024-03-08T02:47:10;0.50;99.90
18260;DHT22;9256;52.236;5.712;2024-03-08T02:49:37;0.50;99.90
18260;DHT22;9256;52.236;5.712;2024-03-08T02:52:04;0.50;99.90
18260;DHT22;9256;52.236;5.712;2024-03-08T02:54:33;0.50;99.90
18260;DHT22;9256;52.236;5.712;2024-03-08T02:57:02;0.50;99.90
18260;DHT22;9256;52.236;5.712;2024-03-08T02:59:29;0.50;99.90
18260;DHT22;9256;52.236;5.712;2024-03-08T03:01:56;0.50;99.90
18260;DHT22;9256;52.236;5.712;2024-03-08T03:04:23;0.50;99.90
18260;DHT22;9256;52.236;5.712;2024-03-08T03:06:50;0.50;99.90
18260;DHT22;9256;52.236;5.712;2024-03-08T03:09:17;0.50;99.90
18260;DHT22;9256;52.236;5.712;2024-03-08T03:11:49;0.50;99.90
18260;DHT22;9256;52.236;5.712;2024-03-08T03:14:17;0.50;99.90
18260;DHT22;9256;52.236;5.712;2024-03-08T03:16:44;0.40;99.90
18260;DHT22;9256;52.236;5.712;2024-03-08T03:19:11;0.40;99.90
18260;DHT22;9256;52.236;5.712;2024-03-08T03:21:38;0.40;99.90
18260;DHT22;9256;52.236;5.712;2024-03-08T03:24:06;0.50;99.90
18260;DHT22;9256;52.236;5.712;2024-03-08T03:26:35;0.50;99.90
18260;DHT22;9256;52.236;5.712;2024-03-08T03:29:04;0.50;99.90
18260;DHT22;9256;52.236;5.712;2024-03-08T03:31:35;0.50;99.90
18260;DHT22;9256;52.236;5.712;2024-03-08T03:34:03;0.50;99.90
18260;DHT22;9256;52.236;5.712;2024-03-08T03:36:30;0.50;99.90
18260;DHT22;9256;52.236;5.712;2024-03-08T03:38:57;0.50;99.90
18260;DHT22;9256;52.236;5.712;2024-03-08T03:41:36;0.50;99.90
18260;DHT22;9256;52.236;5.712;2024-03-08T03:44:04;0.40;99.90
18260;DHT22;9256;52.236;5.712;2024-03-08T03:46:32;0.40;99.90
18260;DHT22;9256;52.236;5.712;2024-03-08T03:49:00;0.40;99.90
18260;DHT22;9256;52.236;5.712;2024-03-08T03:51:29;0.40;99.90
18260;DHT22;9256;52.236;5.712;2024-03-08T03:53:56;0.50;99.90
18260;DHT22;9256;52.236;5.712;2024-03-08T03:56:25;0.50;99.90
18260;DHT22;9256;52.236;5.712;2024-03-08T03:58:52;0.50;99.90
18260;DHT22;9256;52.236;5.712;2024-03-08T04:01:19;0.50;99.90
18260;DHT22;9256;52.236;5.712;2024-03-08T04:03:46;0.40;99.90
18260;DHT22;9256;52.236;5.712;2024-03-08T04:06:15;0.40;99.90
18260;DHT22;9256;52.236;5.712;2024-03-08T04:08:42;0.40;99.90
18260;DHT22;9256;52.236;5.712;2024-03-08T04:11:09;0.40;99.90
18260;DHT22;9256;52.236;5.712;2024-03-08T04:13:36;0.40;99.90
18260;DHT22;9256;52.236;5.712;2024-03-08T04:16:04;0.40;99.90
18260;DHT22;9256;52.236;5.712;2024-03-08T04:18:34;0.30;99.90
18260;DHT22;9256;52.236;5.712;2024-03-08T04:21:04;0.30;99.90
18260;DHT22;9256;52.236;5.712;2024-03-08T04:23:35;0.20;99.90
18260;DHT22;9256;52.236;5.712;2024-03-08T04:26:02;0.20;99.90
18260;DHT22;9256;52.236;5.712;2024-03-08T04:28:30;0.20;99.90
18260;DHT22;9256;52.236;5.712;2024-03-08T04:30:57;0.30;99.90
18260;DHT22;9256;52.236;5.712;2024-03-08T04:33:26;0.30;99.90
18260;DHT22;9256;52.236;5.712;2024-03-08T04:35:53;0.30;99.90
18260;DHT22;9256;52.236;5.712;2024-03-08T04:38:20;0.20;99.90
18260;DHT22;9256;52.236;5.712;2024-03-08T04:40:49;0.20;99.90
18260;DHT22;9256;52.236;5.712;2024-03-08T04:43:16;0.20;99.90
18260;DHT22;9256;52.236;5.712;2024-03-08T04:45:44;0.10;99.90
18260;DHT22;9256;52.236;5.712;2024-03-08T04:48:11;0.20;99.90
18260;DHT22;9256;52.236;5.712;2024-03-08T04:50:38;0.10;99.90
18260;DHT22;9256;52.236;5.712;2024-03-08T04:53:05;0.10;99.90
18260;DHT22;9256;52.236;5.712;2024-03-08T04:55:33;0.20;99.90
18260;DHT22;9256;52.236;5.712;2024-03-08T04:58:02;0.20;99.90
18260;DHT22;9256;52.236;5.712;2024-03-08T05:00:31;0.20;99.90
18260;DHT22;9256;52.236;5.712;2024-03-08T05:02:58;0.10;99.90
18260;DHT22;9256;52.236;5.712;2024-03-08T05:05:25;0.10;99.90
18260;DHT22;9256;52.236;5.712;2024-03-08T05:07:54;0.10;99.90
18260;DHT22;9256;52.236;5.712;2024-03-08T05:10:21;0.10;99.90
18260;DHT22;9256;52.236;5.712;2024-03-08T05:12:48;0.10;99.90
18260;DHT22;9256;52.236;5.712;2024-03-08T05:15:16;0.00;99.90
18260;DHT22;9256;52.236;5.712;2024-03-08T05:17:43;0.00;99.90
18260;DHT22;9256;52.236;5.712;2024-03-08T05:20:10;0.10;99.90
18260;DHT22;9256;52.236;5.712;2024-03-08T05:22:39;0.00;99.90
18260;DHT22;9256;52.236;5.712;2024-03-08T05:25:07;0.00;99.90
18260;DHT22;9256;52.236;5.712;2024-03-08T05:27:35;0.00;99.90
18260;DHT22;9256;52.236;5.712;2024-03-08T05:30:02;0.00;99.90
18260;DHT22;9256;52.236;5.712;2024-03-08T05:32:32;0.00;99.90
18260;DHT22;9256;52.236;5.712;2024-03-08T05:34:59;0.00;99.90
18260;DHT22;9256;52.236;5.712;2024-03-08T05:37:26;0.00;99.90
18260;DHT22;9256;52.236;5.712;2024-03-08T05:39:53;0.00;99.90
18260;DHT22;9256;52.236;5.712;2024-03-08T05:42:20;0.00;99.90
18260;DHT22;9256;52.236;5.712;2024-03-08T05:44:47;0.00;99.90
18260;DHT22;9256;52.236;5.712;2024-03-08T05:47:15;0.00;99.90
18260;DHT22;9256;52.236;5.712;2024-03-08T05:49:45;0.00;99.90
18260;DHT22;9256;52.236;5.712;2024-03-08T05:52:12;0.00;99.90
18260;DHT22;9256;52.236;5.712;2024-03-08T05:54:40;0.00;99.90
18260;DHT22;9256;52.236;5.712;2024-03-08T05:57:07;-0.10;99.90
18260;DHT22;9256;52.236;5.712;2024-03-08T05:59:34;-0.10;99.90
18260;DHT22;9256;52.236;5.712;2024-03-08T06:02:01;-0.10;99.90
18260;DHT22;9256;52.236;5.712;2024-03-08T06:04:29;-0.10;99.90
18260;DHT22;9256;52.236;5.712;2024-03-08T06:06:57;-0.10;99.90
18260;DHT22;9256;52.236;5.712;2024-03-08T06:09:24;-0.10;99.90
18260;DHT22;9256;52.236;5.712;2024-03-08T06:11:51;-0.10;99.90
18260;DHT22;9256;52.236;5.712;2024-03-08T06:14:19;-0.10;99.90
18260;DHT22;9256;52.236;5.712;2024-03-08T06:16:47;-0.10;99.90
18260;DHT22;9256;52.236;5.712;2024-03-08T06:19:15;-0.10;99.90
18260;DHT22;9256;52.236;5.712;2024-03-08T06:21:42;-0.10;99.90
18260;DHT22;9256;52.236;5.712;2024-03-08T06:24:11;-0.10;99.90
18260;DHT22;9256;52.236;5.712;2024-03-08T06:26:38;0.00;99.90
18260;DHT22;9256;52.236;5.712;2024-03-08T06:29:05;0.00;99.90
18260;DHT22;9256;52.236;5.712;2024-03-08T06:31:32;0.10;99.90
18260;DHT22;9256;52.236;5.712;2024-03-08T06:34:04;0.10;99.90
18260;DHT22;9256;52.236;5.712;2024-03-08T06:36:33;0.20;99.90
18260;DHT22;9256;52.236;5.712;2024-03-08T06:39:00;0.20;99.90
18260;DHT22;9256;52.236;5.712;2024-03-08T06:41:33;0.20;99.90
18260;DHT22;9256;52.236;5.712;2024-03-08T06:44:00;0.20;99.90
18260;DHT22;9256;52.236;5.712;2024-03-08T06:46:27;0.30;99.90
18260;DHT22;9256;52.236;5.712;2024-03-08T06:48:54;0.30;99.90
18260;DHT22;9256;52.236;5.712;2024-03-08T06:51:21;0.40;99.90
18260;DHT22;9256;52.236;5.712;2024-03-08T06:53:49;0.50;99.90
18260;DHT22;9256;52.236;5.712;2024-03-08T06:56:18;0.40;99.90
18260;DHT22;9256;52.236;5.712;2024-03-08T06:58:47;0.50;99.90
18260;DHT22;9256;52.236;5.712;2024-03-08T07:01:15;0.60;99.90
18260;DHT22;9256;52.236;5.712;2024-03-08T07:03:42;0.60;99.90
18260;DHT22;9256;52.236;5.712;2024-03-08T07:06:13;0.70;99.90
18260;DHT22;9256;52.236;5.712;2024-03-08T07:08:42;0.70;99.90
18260;DHT22;9256;52.236;5.712;2024-03-08T07:11:11;0.80;99.90
18260;DHT22;9256;52.236;5.712;2024-03-08T07:13:44;0.80;99.90
18260;DHT22;9256;52.236;5.712;2024-03-08T07:16:12;0.90;99.90
18260;DHT22;9256;52.236;5.712;2024-03-08T07:18:39;1.00;99.90
18260;DHT22;9256;52.236;5.712;2024-03-08T07:21:09;1.00;99.90
18260;DHT22;9256;52.236;5.712;2024-03-08T07:23:36;1.10;99.90
18260;DHT22;9256;52.236;5.712;2024-03-08T07:26:30;1.10;99.90
18260;DHT22;9256;52.236;5.712;2024-03-08T07:28:57;1.20;99.90
18260;DHT22;9256;52.236;5.712;2024-03-08T07:31:27;1.20;99.90
18260;DHT22;9256;52.236;5.712;2024-03-08T07:34:10;1.30;99.90
18260;DHT22;9256;52.236;5.712;2024-03-08T07:36:37;1.30;99.90
18260;DHT22;9256;52.236;5.712;2024-03-08T07:39:04;1.40;99.90
18260;DHT22;9256;52.236;5.712;2024-03-08T07:41:37;1.50;99.90
18260;DHT22;9256;52.236;5.712;2024-03-08T07:44:05;1.50;99.90
18260;DHT22;9256;52.236;5.712;2024-03-08T07:46:34;1.60;99.90
18260;DHT22;9256;52.236;5.712;2024-03-08T07:49:02;1.70;99.90
18260;DHT22;9256;52.236;5.712;2024-03-08T07:51:30;1.70;99.90
18260;DHT22;9256;52.236;5.712;2024-03-08T07:53:57;1.80;99.90
18260;DHT22;9256;52.236;5.712;2024-03-08T07:56:25;1.90;99.90
18260;DHT22;9256;52.236;5.712;2024-03-08T07:58:52;1.90;99.90
18260;DHT22;9256;52.236;5.712;2024-03-08T08:01:19;2.00;99.90
18260;DHT22;9256;52.236;5.712;2024-03-08T08:03:48;2.10;99.90
18260;DHT22;9256;52.236;5.712;2024-03-08T08:06:15;2.10;99.90
18260;DHT22;9256;52.236;5.712;2024-03-08T08:08:42;2.20;99.90
18260;DHT22;9256;52.236;5.712;2024-03-08T08:11:10;2.30;99.90
18260;DHT22;9256;52.236;5.712;2024-03-08T08:13:37;2.40;99.90
18260;DHT22;9256;52.236;5.712;2024-03-08T08:16:05;2.50;99.90
18260;DHT22;9256;52.236;5.712;2024-03-08T08:18:33;2.60;99.90
18260;DHT22;9256;52.236;5.712;2024-03-08T08:21:02;2.70;99.90
18260;DHT22;9256;52.236;5.712;2024-03-08T08:23:32;2.70;99.90
18260;DHT22;9256;52.236;5.712;2024-03-08T08:25:59;2.80;99.90
18260;DHT22;9256;52.236;5.712;2024-03-08T08:28:29;2.80;99.90
18260;DHT22;9256;52.236;5.712;2024-03-08T08:30:56;2.90;99.90
18260;DHT22;9256;52.236;5.712;2024-03-08T08:33:25;3.00;99.90
18260;DHT22;9256;52.236;5.712;2024-03-08T08:35:52;3.10;99.90
18260;DHT22;9256;52.236;5.712;2024-03-08T08:38:21;3.30;99.90
18260;DHT22;9256;52.236;5.712;2024-03-08T08:40:49;3.30;99.90
18260;DHT22;9256;52.236;5.712;2024-03-08T08:43:16;3.50;99.90
18260;DHT22;9256;52.236;5.712;2024-03-08T08:45:45;3.50;99.90
18260;DHT22;9256;52.236;5.712;2024-03-08T08:48:13;3.60;99.90
18260;DHT22;9256;52.236;5.712;2024-03-08T08:50:40;3.70;99.90
18260;DHT22;9256;52.236;5.712;2024-03-08T08:53:07;3.70;99.90
18260;DHT22;9256;52.236;5.712;2024-03-08T08:55:35;3.80;99.90
18260;DHT22;9256;52.236;5.712;2024-03-08T08:58:02;3.90;99.90
18260;DHT22;9256;52.236;5.712;2024-03-08T09:00:30;3.90;99.90
18260;DHT22;9256;52.236;5.712;2024-03-08T09:02:57;4.10;99.90
18260;DHT22;9256;52.236;5.712;2024-03-08T09:05:24;4.10;99.90
18260;DHT22;9256;52.236;5.712;2024-03-08T09:07:52;4.30;99.90
18260;DHT22;9256;52.236;5.712;2024-03-08T09:10:19;4.40;99.90
18260;DHT22;9256;52.236;5.712;2024-03-08T09:12:48;4.50;99.90
18260;DHT22;9256;52.236;5.712;2024-03-08T09:15:15;4.60;99.90
18260;DHT22;9256;52.236;5.712;2024-03-08T09:17:43;4.70;99.90
18260;DHT22;9256;52.236;5.712;2024-03-08T09:20:11;4.80;99.90
18260;DHT22;9256;52.236;5.712;2024-03-08T09:22:40;4.90;99.90
18260;DHT22;9256;52.236;5.712;2024-03-08T09:25:08;5.00;99.90
18260;DHT22;9256;52.236;5.712;2024-03-08T09:27:35;5.00;99.90
18260;DHT22;9256;52.236;5.712;2024-03-08T09:30:04;5.10;99.90
18260;DHT22;9256;52.236;5.712;2024-03-08T09:32:33;5.10;99.90
18260;DHT22;9256;52.236;5.712;2024-03-08T09:35:00;5.30;99.90
18260;DHT22;9256;52.236;5.712;2024-03-08T09:37:27;5.50;99.90
18260;DHT22;9256;52.236;5.712;2024-03-08T09:39:54;5.50;99.90
18260;DHT22;9256;52.236;5.712;2024-03-08T09:42:21;5.60;99.90
18260;DHT22;9256;52.236;5.712;2024-03-08T09:44:48;5.70;99.90
18260;DHT22;9256;52.236;5.712;2024-03-08T09:47:18;5.70;99.90
18260;DHT22;9256;52.236;5.712;2024-03-08T09:49:45;5.70;99.90
18260;DHT22;9256;52.236;5.712;2024-03-08T09:52:12;5.90;99.90
18260;DHT22;9256;52.236;5.712;2024-03-08T09:54:40;6.00;99.90
18260;DHT22;9256;52.236;5.712;2024-03-08T09:57:10;6.10;99.90
18260;DHT22;9256;52.236;5.712;2024-03-08T09:59:37;6.20;99.90
18260;DHT22;9256;52.236;5.712;2024-03-08T10:02:17;6.30;99.90
18260;DHT22;9256;52.236;5.712;2024-03-08T10:04:44;6.40;99.90
18260;DHT22;9256;52.236;5.712;2024-03-08T10:07:14;6.40;99.90
18260;DHT22;9256;52.236;5.712;2024-03-08T10:09:41;6.50;99.90
18260;DHT22;9256;52.236;5.712;2024-03-08T10:12:13;6.50;99.90
18260;DHT22;9256;52.236;5.712;2024-03-08T10:14:41;6.70;99.90
18260;DHT22;9256;52.236;5.712;2024-03-08T10:17:08;6.80;99.90
18260;DHT22;9256;52.236;5.712;2024-03-08T10:19:37;7.10;99.90
18260;DHT22;9256;52.236;5.712;2024-03-08T10:22:04;7.00;99.90
18260;DHT22;9256;52.236;5.712;2024-03-08T10:24:32;7.20;99.90
18260;DHT22;9256;52.236;5.712;2024-03-08T10:27:00;7.30;99.90
18260;DHT22;9256;52.236;5.712;2024-03-08T10:29:31;7.20;99.90
18260;DHT22;9256;52.236;5.712;2024-03-08T10:31:58;7.30;99.90
18260;DHT22;9256;52.236;5.712;2024-03-08T10:34:25;7.20;99.90
18260;DHT22;9256;52.236;5.712;2024-03-08T10:36:58;7.20;99.90
18260;DHT22;9256;52.236;5.712;2024-03-08T10:39:34;7.30;99.90
18260;DHT22;9256;52.236;5.712;2024-03-08T10:42:03;7.60;99.90
18260;DHT22;9256;52.236;5.712;2024-03-08T10:44:44;7.60;99.90
18260;DHT22;9256;52.236;5.712;2024-03-08T10:47:18;7.70;99.90
18260;DHT22;9256;52.236;5.712;2024-03-08T10:49:57;7.80;99.90
18260;DHT22;9256;52.236;5.712;2024-03-08T10:52:31;7.90;99.90
18260;DHT22;9256;52.236;5.712;2024-03-08T10:54:58;7.80;99.90
18260;DHT22;9256;52.236;5.712;2024-03-08T10:57:26;8.00;99.90
18260;DHT22;9256;52.236;5.712;2024-03-08T10:59:54;8.00;99.90
18260;DHT22;9256;52.236;5.712;2024-03-08T11:02:25;8.00;99.90
18260;DHT22;9256;52.236;5.712;2024-03-08T11:04:53;8.00;99.90
18260;DHT22;9256;52.236;5.712;2024-03-08T11:07:22;8.20;99.90
18260;DHT22;9256;52.236;5.712;2024-03-08T11:09:52;8.30;99.90
18260;DHT22;9256;52.236;5.712;2024-03-08T11:12:21;8.50;99.90
18260;DHT22;9256;52.236;5.712;2024-03-08T11:14:52;8.40;99.90
18260;DHT22;9256;52.236;5.712;2024-03-08T11:17:26;8.50;99.90
18260;DHT22;9256;52.236;5.712;2024-03-08T11:19:55;8.50;99.90
18260;DHT22;9256;52.236;5.712;2024-03-08T11:22:28;8.70;99.90
18260;DHT22;9256;52.236;5.712;2024-03-08T11:25:02;8.70;99.90
18260;DHT22;9256;52.236;5.712;2024-03-08T11:27:34;8.90;99.90
18260;DHT22;9256;52.236;5.712;2024-03-08T11:30:03;9.10;99.90
18260;DHT22;9256;52.236;5.712;2024-03-08T11:32:37;9.20;99.90
18260;DHT22;9256;52.236;5.712;2024-03-08T11:35:07;9.30;99.90
18260;DHT22;9256;52.236;5.712;2024-03-08T11:37:35;9.10;99.90
18260;DHT22;9256;52.236;5.712;2024-03-08T11:40:12;9.20;99.90
18260;DHT22;9256;52.236;5.712;2024-03-08T11:42:44;9.30;99.90
18260;DHT22;9256;52.236;5.712;2024-03-08T11:45:12;9.40;99.90
18260;DHT22;9256;52.236;5.712;2024-03-08T11:47:41;9.40;99.90
18260;DHT22;9256;52.236;5.712;2024-03-08T11:50:12;9.40;99.90
18260;DHT22;9256;52.236;5.712;2024-03-08T11:52:39;9.30;99.90
18260;DHT22;9256;52.236;5.712;2024-03-08T11:55:08;9.30;99.90
18260;DHT22;9256;52.236;5.712;2024-03-08T11:57:36;9.40;99.90
18260;DHT22;9256;52.236;5.712;2024-03-08T12:00:04;9.50;99.90
18260;DHT22;9256;52.236;5.712;2024-03-08T12:02:33;9.70;99.90
18260;DHT22;9256;52.236;5.712;2024-03-08T12:05:04;9.70;99.90
18260;DHT22;9256;52.236;5.712;2024-03-08T12:07:35;9.70;99.90
18260;DHT22;9256;52.236;5.712;2024-03-08T12:10:20;9.80;99.90
18260;DHT22;9256;52.236;5.712;2024-03-08T12:12:49;10.00;99.90
18260;DHT22;9256;52.236;5.712;2024-03-08T12:15:17;10.40;99.90
18260;DHT22;9256;52.236;5.712;2024-03-08T12:17:45;10.00;99.90
18260;DHT22;9256;52.236;5.712;2024-03-08T12:20:16;10.20;99.90
18260;DHT22;9256;52.236;5.712;2024-03-08T12:22:44;10.30;99.90
18260;DHT22;9256;52.236;5.712;2024-03-08T12:25:11;10.20;99.90
18260;DHT22;9256;52.236;5.712;2024-03-08T12:27:42;10.40;99.90
18260;DHT22;9256;52.236;5.712;2024-03-08T12:30:19;10.60;99.90
18260;DHT22;9256;52.236;5.712;2024-03-08T12:32:52;10.80;99.90
18260;DHT22;9256;52.236;5.712;2024-03-08T12:35:20;10.90;99.90
18260;DHT22;9256;52.236;5.712;2024-03-08T12:37:50;11.00;99.90
18260;DHT22;9256;52.236;5.712;2024-03-08T12:40:17;11.10;99.90
18260;DHT22;9256;52.236;5.712;2024-03-08T12:42:46;11.10;99.90
18260;DHT22;9256;52.236;5.712;2024-03-08T12:45:14;11.30;99.90
18260;DHT22;9256;52.236;5.712;2024-03-08T12:47:41;11.30;99.90
18260;DHT22;9256;52.236;5.712;2024-03-08T12:50:10;11.40;99.90
18260;DHT22;9256;52.236;5.712;2024-03-08T12:52:37;11.90;99.90
18260;DHT22;9256;52.236;5.712;2024-03-08T12:55:05;12.10;99.90
18260;DHT22;9256;52.236;5.712;2024-03-08T12:57:35;11.60;99.90
18260;DHT22;9256;52.236;5.712;2024-03-08T13:00:03;11.60;99.90
18260;DHT22;9256;52.236;5.712;2024-03-08T13:02:31;11.30;99.90
18260;DHT22;9256;52.236;5.712;2024-03-08T13:04:58;11.10;99.90
18260;DHT22;9256;52.236;5.712;2024-03-08T13:07:25;11.10;99.90
18260;DHT22;9256;52.236;5.712;2024-03-08T13:09:53;11.30;99.90
18260;DHT22;9256;52.236;5.712;2024-03-08T13:12:21;11.80;99.90
18260;DHT22;9256;52.236;5.712;2024-03-08T13:14:49;11.80;99.90
18260;DHT22;9256;52.236;5.712;2024-03-08T13:17:18;11.70;99.90
18260;DHT22;9256;52.236;5.712;2024-03-08T13:19:45;11.90;99.90
18260;DHT22;9256;52.236;5.712;2024-03-08T13:22:12;12.10;99.90
18260;DHT22;9256;52.236;5.712;2024-03-08T13:24:42;11.80;99.90
18260;DHT22;9256;52.236;5.712;2024-03-08T13:27:10;11.50;99.90
18260;DHT22;9256;52.236;5.712;2024-03-08T13:29:46;11.30;99.90
18260;DHT22;9256;52.236;5.712;2024-03-08T13:32:14;11.30;99.90
18260;DHT22;9256;52.236;5.712;2024-03-08T13:34:43;11.30;99.90
18260;DHT22;9256;52.236;5.712;2024-03-08T13:37:11;11.20;99.90
18260;DHT22;9256;52.236;5.712;2024-03-08T13:39:38;11.40;99.90
18260;DHT22;9256;52.236;5.712;2024-03-08T13:42:10;11.10;99.90
18260;DHT22;9256;52.236;5.712;2024-03-08T13:44:39;11.00;99.90
18260;DHT22;9256;52.236;5.712;2024-03-08T13:47:10;11.10;99.90
18260;DHT22;9256;52.236;5.712;2024-03-08T13:49:37;11.10;99.90
18260;DHT22;9256;52.236;5.712;2024-03-08T13:52:06;11.00;99.90
18260;DHT22;9256;52.236;5.712;2024-03-08T13:54:34;11.40;99.90
18260;DHT22;9256;52.236;5.712;2024-03-08T13:57:02;12.00;99.90
18260;DHT22;9256;52.236;5.712;2024-03-08T13:59:30;11.90;99.90
18260;DHT22;9256;52.236;5.712;2024-03-08T14:01:59;12.50;99.90
18260;DHT22;9256;52.236;5.712;2024-03-08T14:04:27;12.80;99.90
18260;DHT22;9256;52.236;5.712;2024-03-08T14:06:54;12.80;99.90
18260;DHT22;9256;52.236;5.712;2024-03-08T14:09:28;12.90;99.90
18260;DHT22;9256;52.236;5.712;2024-03-08T14:11:56;12.90;99.90
18260;DHT22;9256;52.236;5.712;2024-03-08T14:14:24;12.60;99.90
18260;DHT22;9256;52.236;5.712;2024-03-08T14:16:51;12.60;99.90
18260;DHT22;9256;52.236;5.712;2024-03-08T14:19:21;12.90;99.90
18260;DHT22;9256;52.236;5.712;2024-03-08T14:21:48;13.30;99.90
18260;DHT22;9256;52.236;5.712;2024-03-08T14:24:15;13.60;99.90
18260;DHT22;9256;52.236;5.712;2024-03-08T14:26:44;13.10;99.90
18260;DHT22;9256;52.236;5.712;2024-03-08T14:29:12;13.10;99.90
18260;DHT22;9256;52.236;5.712;2024-03-08T14:31:39;12.70;99.90
18260;DHT22;9256;52.236;5.712;2024-03-08T14:34:07;12.70;99.90
18260;DHT22;9256;52.236;5.712;2024-03-08T14:36:34;12.80;99.90
18260;DHT22;9256;52.236;5.712;2024-03-08T14:39:01;12.90;99.90
18260;DHT22;9256;52.236;5.712;2024-03-08T14:41:28;13.00;99.90
18260;DHT22;9256;52.236;5.712;2024-03-08T14:43:57;12.90;99.90
18260;DHT22;9256;52.236;5.712;2024-03-08T14:46:25;12.80;99.90
18260;DHT22;9256;52.236;5.712;2024-03-08T14:48:52;13.10;99.90
18260;DHT22;9256;52.236;5.712;2024-03-08T14:51:19;13.10;99.90
18260;DHT22;9256;52.236;5.712;2024-03-08T14:53:48;13.20;99.90
18260;DHT22;9256;52.236;5.712;2024-03-08T14:56:15;13.50;99.90
18260;DHT22;9256;52.236;5.712;2024-03-08T14:58:43;13.30;99.90
18260;DHT22;9256;52.236;5.712;2024-03-08T15:01:12;13.30;99.90
18260;DHT22;9256;52.236;5.712;2024-03-08T15:03:40;13.20;99.90
18260;DHT22;9256;52.236;5.712;2024-03-08T15:06:08;12.20;99.90
18260;DHT22;9256;52.236;5.712;2024-03-08T15:08:36;12.00;99.90
18260;DHT22;9256;52.236;5.712;2024-03-08T15:11:03;12.00;99.90
18260;DHT22;9256;52.236;5.712;2024-03-08T15:13:31;11.70;99.90
18260;DHT22;9256;52.236;5.712;2024-03-08T15:16:05;11.30;99.90
18260;DHT22;9256;52.236;5.712;2024-03-08T15:18:34;11.00;99.90
18260;DHT22;9256;52.236;5.712;2024-03-08T15:21:04;10.70;99.90
18260;DHT22;9256;52.236;5.712;2024-03-08T15:23:34;10.60;99.90
18260;DHT22;9256;52.236;5.712;2024-03-08T15:26:01;10.70;99.90
18260;DHT22;9256;52.236;5.712;2024-03-08T15:28:29;10.80;99.90
18260;DHT22;9256;52.236;5.712;2024-03-08T15:31:03;10.50;99.90
18260;DHT22;9256;52.236;5.712;2024-03-08T15:33:35;10.40;99.90
18260;DHT22;9256;52.236;5.712;2024-03-08T15:36:10;10.20;99.90
18260;DHT22;9256;52.236;5.712;2024-03-08T15:38:39;10.20;99.90
18260;DHT22;9256;52.236;5.712;2024-03-08T15:41:07;10.30;99.90
18260;DHT22;9256;52.236;5.712;2024-03-08T15:43:35;10.40;99.90
18260;DHT22;9256;52.236;5.712;2024-03-08T15:46:03;10.30;99.90
18260;DHT22;9256;52.236;5.712;2024-03-08T15:48:31;10.30;99.90
18260;DHT22;9256;52.236;5.712;2024-03-08T15:51:00;10.10;99.90
18260;DHT22;9256;52.236;5.712;2024-03-08T15:53:30;10.10;99.90
18260;DHT22;9256;52.236;5.712;2024-03-08T15:55:57;10.10;99.90
18260;DHT22;9256;52.236;5.712;2024-03-08T15:58:25;10.20;99.90
18260;DHT22;9256;52.236;5.712;2024-03-08T16:00:52;9.90;99.90
18260;DHT22;9256;52.236;5.712;2024-03-08T16:03:21;10.10;99.90
18260;DHT22;9256;52.236;5.712;2024-03-08T16:05:49;10.40;99.90